Time;durP1;ratioP1;P1;durP2;ratioP2;P2;SDS_P1;SDS_P2;PMS_P1;PMS_P2;Temp;Humidity;BMP_temperature;BMP_pressure;BME280_temperature;BME280_humidity;BME280_pressure;Samples;Min_cycle;Max_cycle;Signal;HPM_P1;HPM_P2
2023/06/14 00:01:02;;;;;;;;;9.50;8.75;;;;;;;;4957599;28;45453;-64
2023/06/14 00:03:27;;;;;;;;;13.50;11.00;;;;;;;;4949901;28;47646;-65
2023/06/14 00:05:53;;;;;;;;;11.25;8.25;;;;;;;;4953749;28;45430;-65
2023/06/14 00:08:18;;;;;;;;;9.50;9.25;;;;;;;;4943603;28;45531;-65
2023/06/14 00:10:44;;;;;;;;;7.50;7.50;;;;;;;;4947115;28;45473;-65
2023/06/14 00:13:10;;;;;;;;;11.00;11.00;;;;;;;;4950971;28;46088;-65
2023/06/14 00:15:35;;;;;;;;;13.75;13.75;;;;;;;;4954714;28;45431;-65
2023/06/14 00:18:01;;;;;;;;;9.50;9.50;;;;;;;;4942315;28;45448;-65
2023/06/14 00:20:32;;;;;;;;;12.00;12.00;;;;;;;;4949385;28;45570;-65
2023/06/14 00:22:57;;;;;;;;;8.50;7.25;;;;;;;;4949600;28;47334;-65
2023/06/14 00:25:23;;;;;;;;;15.50;13.25;;;;;;;;4941619;28;45526;-65
2023/06/14 00:27:48;;;;;;;;;11.25;8.50;;;;;;;;4953319;28;45351;-65
2023/06/14 00:30:14;;;;;;;;;10.00;10.00;;;;;;;;4955157;28;45438;-65
2023/06/14 00:32:40;;;;;;;;;14.00;10.75;;;;;;;;4947385;28;45533;-65
2023/06/14 00:35:05;;;;;;;;;9.25;8.75;;;;;;;;4949850;28;45395;-65
2023/06/14 00:37:30;;;;;;;;;11.50;8.75;;;;;;;;4940722;28;45374;-65
2023/06/14 00:39:56;;;;;;;;;9.75;8.75;;;;;;;;4957208;28;45401;-65
2023/06/14 00:42:25;;;;;;;;;13.00;12.00;;;;;;;;4955465;28;45468;-64
2023/06/14 00:44:50;;;;;;;;;9.50;9.50;;;;;;;;4952896;28;45461;-65
2023/06/14 00:47:15;;;;;;;;;10.75;9.50;;;;;;;;4954619;28;45445;-65
2023/06/14 00:49:41;;;;;;;;;11.00;7.75;;;;;;;;4940706;28;45378;-65
2023/06/14 00:52:07;;;;;;;;;13.75;13.75;;;;;;;;4950080;28;47301;-65
2023/06/14 00:54:32;;;;;;;;;10.50;8.75;;;;;;;;4946794;28;45612;-65
2023/06/14 00:56:57;;;;;;;;;10.25;9.00;;;;;;;;4947862;28;45827;-65
2023/06/14 00:59:22;;;;;;;;;10.00;9.50;;;;;;;;4941221;28;45600;-65
2023/06/14 01:01:48;;;;;;;;;7.00;7.00;;;;;;;;4953141;28;46532;-65
2023/06/14 01:04:13;;;;;;;;;11.00;11.00;;;;;;;;4943375;28;45481;-65
2023/06/14 01:06:47;;;;;;;;;13.25;11.75;;;;;;;;4947004;28;45482;-65
2023/06/14 01:09:33;;;;;;;;;10.75;10.75;;;;;;;;4942567;28;45442;-65
2023/06/14 01:12:02;;;;;;;;;8.00;7.25;;;;;;;;4952076;28;47323;-65
2023/06/14 01:14:28;;;;;;;;;16.75;16.25;;;;;;;;4945503;28;45358;-66
2023/06/14 01:16:55;;;;;;;;;11.75;11.75;;;;;;;;4944733;28;45446;-66
2023/06/14 01:19:22;;;;;;;;;14.00;11.50;;;;;;;;4952144;28;45453;-65
2023/06/14 01:21:50;;;;;;;;;11.25;11.25;;;;;;;;4939751;28;45503;-65
2023/06/14 01:24:16;;;;;;;;;12.00;9.50;;;;;;;;4949768;28;45374;-65
2023/06/14 01:26:45;;;;;;;;;11.00;8.25;;;;;;;;4946875;28;45373;-65
2023/06/14 01:29:11;;;;;;;;;11.75;10.00;;;;;;;;4952333;28;45522;-65
2023/06/14 01:31:41;;;;;;;;;10.50;10.25;;;;;;;;4954367;28;47303;-65
2023/06/14 01:34:06;;;;;;;;;11.50;11.00;;;;;;;;4942343;28;45424;-65
2023/06/14 01:36:31;;;;;;;;;12.25;10.75;;;;;;;;4947689;28;45845;-66
2023/06/14 01:38:58;;;;;;;;;11.50;10.50;;;;;;;;4948880;28;45327;-65
2023/06/14 01:41:24;;;;;;;;;11.75;11.00;;;;;;;;4940930;28;47421;-65
2023/06/14 01:43:50;;;;;;;;;13.75;11.75;;;;;;;;4939430;28;45785;-65
2023/06/14 01:46:15;;;;;;;;;14.25;14.25;;;;;;;;4949525;28;45410;-66
2023/06/14 01:48:41;;;;;;;;;12.00;11.50;;;;;;;;4945746;28;45422;-65
2023/06/14 01:51:06;;;;;;;;;16.75;15.25;;;;;;;;4941147;28;47809;-65
2023/06/14 01:53:31;;;;;;;;;15.50;13.75;;;;;;;;4952979;28;45509;-65
2023/06/14 01:55:57;;;;;;;;;13.75;12.25;;;;;;;;4950242;28;45747;-65
2023/06/14 01:58:23;;;;;;;;;13.50;11.75;;;;;;;;4942026;28;45624;-65
2023/06/14 02:00:49;;;;;;;;;15.75;14.50;;;;;;;;4943597;28;47876;-65
2023/06/14 02:03:15;;;;;;;;;13.25;13.25;;;;;;;;4950448;28;45397;-65
2023/06/14 02:05:40;;;;;;;;;12.00;11.50;;;;;;;;4939947;28;45338;-65
2023/06/14 02:08:06;;;;;;;;;15.50;15.50;;;;;;;;4950320;28;45601;-65
2023/06/14 02:10:31;;;;;;;;;14.25;14.25;;;;;;;;4943368;28;46931;-65
2023/06/14 02:12:56;;;;;;;;;13.50;12.00;;;;;;;;4943103;28;45432;-65
2023/06/14 02:15:22;;;;;;;;;15.00;15.00;;;;;;;;4951828;28;45402;-65
2023/06/14 02:17:49;;;;;;;;;11.50;11.50;;;;;;;;4939030;28;45636;-65
2023/06/14 02:20:15;;;;;;;;;14.25;13.25;;;;;;;;4948801;28;46158;-65
2023/06/14 02:22:40;;;;;;;;;17.00;14.50;;;;;;;;4945864;28;45557;-65
2023/06/14 02:25:06;;;;;;;;;19.75;18.50;;;;;;;;4942420;28;45497;-65
2023/06/14 02:27:31;;;;;;;;;17.00;15.00;;;;;;;;4953067;28;45445;-65
2023/06/14 02:29:57;;;;;;;;;17.00;13.25;;;;;;;;4955037;28;45400;-65
2023/06/14 02:32:22;;;;;;;;;15.00;14.25;;;;;;;;4948882;28;45448;-65
2023/06/14 02:34:49;;;;;;;;;19.50;15.75;;;;;;;;4942446;28;45525;-64
2023/06/14 02:37:14;;;;;;;;;15.50;15.50;;;;;;;;4950290;28;45252;-64
2023/06/14 02:39:40;;;;;;;;;17.75;16.50;;;;;;;;4953182;28;46180;-65
2023/06/14 02:42:06;;;;;;;;;14.25;13.25;;;;;;;;4937387;28;45454;-65
2023/06/14 02:44:32;;;;;;;;;15.00;14.75;;;;;;;;4944535;28;45421;-65
2023/06/14 02:46:58;;;;;;;;;18.75;15.00;;;;;;;;4946062;28;45437;-65
2023/06/14 02:49:24;;;;;;;;;13.75;13.50;;;;;;;;4939310;28;46594;-65
2023/06/14 02:51:49;;;;;;;;;17.00;17.00;;;;;;;;4951543;28;45381;-65
2023/06/14 02:54:14;;;;;;;;;17.25;13.50;;;;;;;;4942709;28;45877;-65
2023/06/14 02:56:40;;;;;;;;;16.25;16.25;;;;;;;;4944896;28;45320;-65
2023/06/14 02:59:05;;;;;;;;;19.25;18.25;;;;;;;;4948506;28;46346;-65
2023/06/14 03:01:33;;;;;;;;;18.00;16.00;;;;;;;;4938689;28;45533;-64
2023/06/14 03:03:59;;;;;;;;;18.00;15.75;;;;;;;;4934123;28;45442;-65
2023/06/14 03:06:24;;;;;;;;;17.25;16.25;;;;;;;;4943334;28;45423;-65
2023/06/14 03:08:50;;;;;;;;;15.00;15.00;;;;;;;;4945728;28;46396;-65
2023/06/14 03:11:16;;;;;;;;;17.00;13.75;;;;;;;;4953681;28;45341;-65
2023/06/14 03:13:42;;;;;;;;;18.50;16.75;;;;;;;;4942284;28;45442;-65
2023/06/14 03:16:07;;;;;;;;;18.25;16.50;;;;;;;;4952642;28;46055;-65
2023/06/14 03:18:35;;;;;;;;;19.50;18.00;;;;;;;;4947485;28;46463;-64
2023/06/14 03:21:00;;;;;;;;;13.25;13.00;;;;;;;;4945969;28;45777;-65
2023/06/14 03:23:25;;;;;;;;;16.50;15.50;;;;;;;;4954695;28;45376;-64
2023/06/14 03:25:51;;;;;;;;;18.00;15.75;;;;;;;;4942142;28;45584;-65
2023/06/14 03:28:16;;;;;;;;;19.00;17.50;;;;;;;;4954839;28;46012;-65
2023/06/14 03:30:42;;;;;;;;;20.00;17.00;;;;;;;;4957383;28;45510;-64
2023/06/14 03:33:09;;;;;;;;;15.75;15.25;;;;;;;;4944195;28;45471;-65
2023/06/14 03:35:34;;;;;;;;;14.25;14.25;;;;;;;;4954474;28;45523;-65
2023/06/14 03:38:00;;;;;;;;;17.75;15.50;;;;;;;;4942508;28;46469;-65
2023/06/14 03:40:27;;;;;;;;;16.00;15.00;;;;;;;;4949928;28;45462;-64
2023/06/14 03:42:53;;;;;;;;;15.50;12.50;;;;;;;;4957445;28;45465;-65
2023/06/14 03:45:18;;;;;;;;;16.75;16.00;;;;;;;;4957915;28;45279;-64
2023/06/14 03:47:43;;;;;;;;;16.75;16.00;;;;;;;;4957916;28;46427;-64
2023/06/14 03:50:09;;;;;;;;;13.50;12.50;;;;;;;;4958182;28;45362;-64
2023/06/14 03:52:34;;;;;;;;;14.00;11.75;;;;;;;;4957965;28;45556;-65
2023/06/14 03:55:02;;;;;;;;;17.25;16.25;;;;;;;;4958163;28;45473;-65
2023/06/14 03:57:27;;;;;;;;;16.50;16.50;;;;;;;;4957613;28;47272;-65
2023/06/14 03:59:53;;;;;;;;;17.75;17.50;;;;;;;;4957805;28;45321;-65
2023/06/14 04:02:18;;;;;;;;;13.75;13.75;;;;;;;;4958029;28;45332;-65
2023/06/14 04:04:45;;;;;;;;;20.50;17.00;;;;;;;;4957869;28;45424;-65
2023/06/14 04:07:11;;;;;;;;;14.75;13.75;;;;;;;;4957727;28;46565;-65
2023/06/14 04:09:36;;;;;;;;;17.50;16.00;;;;;;;;4958121;28;45430;-65
2023/06/14 04:12:02;;;;;;;;;14.25;13.50;;;;;;;;4955831;28;45505;-65
2023/06/14 04:14:27;;;;;;;;;13.75;13.75;;;;;;;;4955892;28;45476;-65
2023/06/14 04:16:52;;;;;;;;;15.00;13.75;;;;;;;;4956324;28;47410;-65
2023/06/14 04:19:17;;;;;;;;;15.50;15.50;;;;;;;;4956696;28;45369;-65
2023/06/14 04:21:42;;;;;;;;;16.00;15.50;;;;;;;;4956627;28;45322;-65
2023/06/14 04:24:12;;;;;;;;;15.50;14.00;;;;;;;;4956174;28;45366;-65
2023/06/14 04:26:39;;;;;;;;;16.75;16.75;;;;;;;;4955891;28;46669;-65
2023/06/14 04:29:05;;;;;;;;;12.00;11.50;;;;;;;;4957112;28;45390;-65
2023/06/14 04:31:33;;;;;;;;;16.25;15.25;;;;;;;;4957555;28;45457;-65
2023/06/14 04:33:59;;;;;;;;;13.50;13.50;;;;;;;;4956120;28;45648;-65
2023/06/14 04:36:24;;;;;;;;;16.75;13.25;;;;;;;;4956786;28;45712;-65
2023/06/14 04:38:53;;;;;;;;;14.00;14.00;;;;;;;;4956873;28;45419;-65
2023/06/14 04:41:19;;;;;;;;;17.75;16.00;;;;;;;;4956063;28;45716;-65
2023/06/14 04:43:48;;;;;;;;;19.00;17.75;;;;;;;;4946216;28;45706;-65
2023/06/14 04:46:14;;;;;;;;;19.75;18.00;;;;;;;;4957984;28;45422;-65
2023/06/14 04:48:40;;;;;;;;;16.75;15.50;;;;;;;;4957258;28;45361;-65
2023/06/14 04:51:06;;;;;;;;;16.50;14.50;;;;;;;;4957806;28;45705;-65
2023/06/14 04:53:32;;;;;;;;;18.75;17.50;;;;;;;;4957396;28;45433;-65
2023/06/14 04:55:57;;;;;;;;;15.75;14.75;;;;;;;;4957085;28;45717;-65
2023/06/14 04:58:22;;;;;;;;;16.50;15.75;;;;;;;;4957093;28;45479;-65
2023/06/14 05:00:47;;;;;;;;;21.25;19.75;;;;;;;;4956295;28;45402;-65
2023/06/14 05:03:13;;;;;;;;;17.50;16.50;;;;;;;;4957240;28;45524;-65
2023/06/14 05:05:38;;;;;;;;;22.50;21.00;;;;;;;;4955949;28;46471;-65
2023/06/14 05:08:04;;;;;;;;;17.25;15.25;;;;;;;;4957055;28;45447;-65
2023/06/14 05:10:29;;;;;;;;;18.25;17.75;;;;;;;;4957180;28;45402;-65
2023/06/14 05:12:54;;;;;;;;;19.50;17.50;;;;;;;;4957073;28;45306;-65
2023/06/14 05:15:25;;;;;;;;;21.00;20.50;;;;;;;;4956558;28;45472;-65
2023/06/14 05:17:54;;;;;;;;;22.00;21.50;;;;;;;;4957035;28;45430;-65
2023/06/14 05:20:19;;;;;;;;;18.25;17.00;;;;;;;;4957038;28;45493;-65
2023/06/14 05:22:45;;;;;;;;;22.50;18.75;;;;;;;;4956625;28;45581;-66
2023/06/14 05:25:10;;;;;;;;;19.50;19.25;;;;;;;;4956820;28;46545;-65
2023/06/14 05:27:36;;;;;;;;;21.25;21.25;;;;;;;;4956705;28;45429;-65
2023/06/14 05:30:03;;;;;;;;;18.25;17.75;;;;;;;;4956737;28;45360;-65
2023/06/14 05:32:28;;;;;;;;;18.00;17.50;;;;;;;;4956278;28;45422;-65
2023/06/14 05:34:54;;;;;;;;;16.75;16.75;;;;;;;;4956682;28;45391;-65
2023/06/14 05:37:19;;;;;;;;;24.00;21.25;;;;;;;;4956748;28;45407;-66
2023/06/14 05:39:44;;;;;;;;;18.50;18.50;;;;;;;;4956712;28;45403;-65
2023/06/14 05:42:09;;;;;;;;;18.75;16.75;;;;;;;;4948895;28;45521;-64
2023/06/14 05:44:34;;;;;;;;;16.75;15.75;;;;;;;;4936982;28;45586;-65
2023/06/14 05:47:00;;;;;;;;;21.50;17.75;;;;;;;;4936150;28;45458;-64
2023/06/14 05:49:25;;;;;;;;;14.00;13.00;;;;;;;;4937440;28;45358;-65
2023/06/14 05:51:51;;;;;;;;;22.00;19.00;;;;;;;;4946926;28;45414;-65
2023/06/14 05:54:16;;;;;;;;;19.50;16.00;;;;;;;;4956213;28;49106;-65
2023/06/14 05:56:41;;;;;;;;;19.25;15.75;;;;;;;;4954618;28;45546;-65
2023/06/14 05:59:06;;;;;;;;;19.50;18.00;;;;;;;;4956803;28;45438;-66
2023/06/14 06:01:33;;;;;;;;;23.25;22.50;;;;;;;;4956493;28;45354;-65
2023/06/14 06:03:59;;;;;;;;;17.75;16.25;;;;;;;;4956006;28;45940;-65
2023/06/14 06:06:25;;;;;;;;;21.75;21.00;;;;;;;;4956232;28;45248;-65
2023/06/14 06:08:50;;;;;;;;;19.25;19.25;;;;;;;;4956418;28;45393;-65
2023/06/14 06:11:15;;;;;;;;;20.50;20.50;;;;;;;;4955863;28;45424;-65
2023/06/14 06:13:41;;;;;;;;;13.00;8.75;;;;;;;;4954599;28;47182;-64
2023/06/14 06:16:06;;;;;;;;;20.00;19.50;;;;;;;;4954829;28;45330;-65
2023/06/14 06:18:31;;;;;;;;;21.50;20.00;;;;;;;;4956210;28;45403;-66
2023/06/14 06:20:57;;;;;;;;;22.00;21.00;;;;;;;;4956300;28;45308;-66
2023/06/14 06:23:22;;;;;;;;;23.50;22.00;;;;;;;;4955708;28;46244;-66
2023/06/14 06:25:47;;;;;;;;;21.50;21.50;;;;;;;;4956055;28;45369;-66
2023/06/14 06:28:12;;;;;;;;;18.00;18.00;;;;;;;;4956053;28;45467;-66
2023/06/14 06:30:38;;;;;;;;;15.00;13.25;;;;;;;;4955804;28;45423;-66
2023/06/14 06:33:03;;;;;;;;;17.75;16.75;;;;;;;;4955784;28;45590;-66
2023/06/14 06:35:29;;;;;;;;;17.50;17.00;;;;;;;;4955977;28;45342;-66
2023/06/14 06:37:55;;;;;;;;;18.50;16.50;;;;;;;;4956022;28;45444;-66
2023/06/14 06:40:20;;;;;;;;;12.75;12.75;;;;;;;;4955553;28;45478;-66
2023/06/14 06:42:45;;;;;;;;;12.25;12.25;;;;;;;;4947111;28;46227;-66
2023/06/14 06:45:11;;;;;;;;;15.75;13.75;;;;;;;;4962171;28;45334;-65
2023/06/14 06:47:36;;;;;;;;;15.75;13.75;;;;;;;;4962512;28;45312;-66
2023/06/14 06:50:01;;;;;;;;;14.25;14.00;;;;;;;;4962440;28;45398;-66
2023/06/14 06:52:26;;;;;;;;;13.25;11.25;;;;;;;;4960385;28;46291;-66
2023/06/14 06:54:54;;;;;;;;;9.25;9.25;;;;;;;;4961768;28;45389;-66
2023/06/14 06:57:20;;;;;;;;;9.75;9.00;;;;;;;;4962247;28;45382;-66
2023/06/14 06:59:45;;;;;;;;;13.50;12.75;;;;;;;;4961440;28;45454;-66
2023/06/14 07:02:10;;;;;;;;;15.25;12.50;;;;;;;;4961837;28;45574;-66
2023/06/14 07:04:35;;;;;;;;;13.50;12.25;;;;;;;;4962026;28;45585;-66
2023/06/14 07:07:01;;;;;;;;;8.75;8.75;;;;;;;;4960474;28;45390;-64
2023/06/14 07:09:26;;;;;;;;;11.50;11.25;;;;;;;;4959382;28;45412;-65
2023/06/14 07:11:52;;;;;;;;;13.00;13.00;;;;;;;;4946517;28;46331;-66
2023/06/14 07:14:17;;;;;;;;;10.00;10.00;;;;;;;;4951219;28;45496;-65
2023/06/14 07:16:42;;;;;;;;;13.25;12.00;;;;;;;;4945974;28;45346;-65
2023/06/14 07:19:09;;;;;;;;;8.00;8.00;;;;;;;;4951717;28;45303;-65
2023/06/14 07:21:34;;;;;;;;;10.50;9.50;;;;;;;;4961696;28;46662;-64
2023/06/14 07:23:59;;;;;;;;;14.00;11.25;;;;;;;;4961156;28;45533;-65
2023/06/14 07:26:25;;;;;;;;;10.75;10.75;;;;;;;;4961340;28;45485;-65
2023/06/14 07:28:50;;;;;;;;;9.00;9.00;;;;;;;;4961100;28;45500;-64
2023/06/14 07:31:16;;;;;;;;;11.75;10.25;;;;;;;;4961082;28;46119;-64
2023/06/14 07:33:41;;;;;;;;;7.50;7.50;;;;;;;;4960663;28;45337;-64
2023/06/14 07:36:07;;;;;;;;;10.75;10.50;;;;;;;;4950218;28;45465;-65
2023/06/14 07:38:32;;;;;;;;;12.50;12.00;;;;;;;;4947194;28;45557;-65
2023/06/14 07:40:58;;;;;;;;;11.00;11.00;;;;;;;;4943892;28;46412;-66
2023/06/14 07:43:23;;;;;;;;;12.75;11.00;;;;;;;;4957314;28;45525;-66
2023/06/14 07:45:48;;;;;;;;;14.50;10.50;;;;;;;;4947301;28;45496;-66
2023/06/14 07:48:13;;;;;;;;;11.50;10.00;;;;;;;;4955975;28;45445;-66
2023/06/14 07:50:39;;;;;;;;;11.75;10.75;;;;;;;;4948032;28;46395;-65
2023/06/14 07:53:04;;;;;;;;;15.25;14.25;;;;;;;;4953400;28;45475;-65
2023/06/14 07:55:30;;;;;;;;;8.25;7.25;;;;;;;;4953432;28;45433;-64
2023/06/14 07:57:55;;;;;;;;;12.25;11.00;;;;;;;;4952136;28;45731;-65
2023/06/14 08:00:21;;;;;;;;;10.50;7.00;;;;;;;;4956300;28;46145;-65
2023/06/14 08:02:46;;;;;;;;;9.00;8.75;;;;;;;;4948119;28;45433;-66
2023/06/14 08:05:11;;;;;;;;;12.00;11.00;;;;;;;;4944662;28;45385;-66
2023/06/14 08:07:37;;;;;;;;;12.25;9.50;;;;;;;;4942043;28;45425;-65
2023/06/14 08:10:03;;;;;;;;;14.50;11.75;;;;;;;;4948989;28;45417;-65
2023/06/14 08:12:28;;;;;;;;;11.25;11.00;;;;;;;;4948993;28;45325;-65
2023/06/14 08:14:53;;;;;;;;;10.25;10.25;;;;;;;;4955843;28;45514;-66
2023/06/14 08:17:18;;;;;;;;;11.25;11.25;;;;;;;;4941247;28;45378;-66
2023/06/14 08:19:43;;;;;;;;;9.50;9.50;;;;;;;;4951741;28;45429;-66
2023/06/14 08:22:11;;;;;;;;;8.75;8.75;;;;;;;;4946097;28;45567;-66
2023/06/14 08:24:36;;;;;;;;;11.75;10.25;;;;;;;;4944864;28;45442;-66
2023/06/14 08:27:02;;;;;;;;;9.75;9.75;;;;;;;;4953826;28;45318;-66
2023/06/14 08:29:29;;;;;;;;;13.00;13.00;;;;;;;;4950001;28;47797;-66
2023/06/14 08:31:54;;;;;;;;;10.50;10.50;;;;;;;;4950326;28;45442;-66
2023/06/14 08:34:20;;;;;;;;;12.00;11.25;;;;;;;;4947960;28;45517;-66
2023/06/14 08:36:45;;;;;;;;;9.25;8.75;;;;;;;;4951374;28;45779;-66
2023/06/14 08:39:11;;;;;;;;;10.75;10.75;;;;;;;;4955802;28;45839;-66
2023/06/14 08:41:36;;;;;;;;;13.50;12.75;;;;;;;;4945120;28;45898;-65
2023/06/14 08:44:02;;;;;;;;;12.75;10.25;;;;;;;;4951696;28;45533;-66
2023/06/14 08:46:27;;;;;;;;;9.75;9.00;;;;;;;;4955937;28;45507;-66
2023/06/14 08:48:56;;;;;;;;;9.50;9.50;;;;;;;;4956778;28;46558;-66
2023/06/14 08:51:22;;;;;;;;;5.50;5.50;;;;;;;;4942757;28;45525;-66
2023/06/14 08:53:51;;;;;;;;;12.50;9.50;;;;;;;;4943271;28;45363;-66
2023/06/14 08:56:16;;;;;;;;;12.00;9.75;;;;;;;;4947343;28;45538;-66
2023/06/14 08:58:44;;;;;;;;;12.00;11.75;;;;;;;;4950197;28;46327;-67
2023/06/14 09:01:14;;;;;;;;;9.50;9.50;;;;;;;;4943119;28;45453;-65
2023/06/14 09:03:40;;;;;;;;;11.00;10.00;;;;;;;;4955668;28;45441;-65
2023/06/14 09:06:08;;;;;;;;;11.75;11.75;;;;;;;;4956552;28;45605;-65
2023/06/14 09:08:34;;;;;;;;;11.50;11.50;;;;;;;;4956539;28;47505;-66
2023/06/14 09:11:01;;;;;;;;;12.50;9.50;;;;;;;;4956833;28;45760;-65
2023/06/14 09:13:26;;;;;;;;;9.25;8.75;;;;;;;;4955849;28;45346;-66
2023/06/14 09:15:52;;;;;;;;;9.75;9.00;;;;;;;;4956907;28;45381;-66
2023/06/14 09:18:17;;;;;;;;;10.50;9.25;;;;;;;;4956897;28;45310;-66
2023/06/14 09:20:43;;;;;;;;;13.00;10.75;;;;;;;;4956974;28;45477;-66
2023/06/14 09:23:08;;;;;;;;;11.50;9.75;;;;;;;;4946965;28;45509;-65
2023/06/14 09:25:46;;;;;;;;;10.25;10.25;;;;;;;;4945056;28;45417;-66
2023/06/14 09:28:11;;;;;;;;;10.75;8.75;;;;;;;;4955476;28;46649;-66
2023/06/14 09:30:39;;;;;;;;;13.00;13.00;;;;;;;;4943755;28;45568;-66
2023/06/14 09:33:05;;;;;;;;;11.75;10.50;;;;;;;;4942162;28;47222;-67
2023/06/14 09:35:33;;;;;;;;;8.50;8.25;;;;;;;;4943601;28;45579;-67
2023/06/14 09:37:59;;;;;;;;;10.25;10.25;;;;;;;;4949753;28;47774;-66
2023/06/14 09:40:24;;;;;;;;;8.00;8.00;;;;;;;;4939772;28;45520;-67
2023/06/14 09:42:50;;;;;;;;;8.75;7.75;;;;;;;;4948716;28;45467;-67
2023/06/14 09:45:19;;;;;;;;;9.00;9.00;;;;;;;;4955575;28;45547;-66
2023/06/14 09:47:45;;;;;;;;;9.50;8.25;;;;;;;;4956529;28;45407;-66
2023/06/14 09:50:10;;;;;;;;;6.25;6.25;;;;;;;;4956610;28;45408;-67
2023/06/14 09:52:36;;;;;;;;;8.00;7.75;;;;;;;;4954817;28;45413;-67
2023/06/14 09:55:10;;;;;;;;;10.25;9.25;;;;;;;;4957090;28;45357;-67
2023/06/14 09:57:35;;;;;;;;;9.75;9.75;;;;;;;;4957012;28;47338;-68
2023/06/14 10:00:03;;;;;;;;;8.50;8.00;;;;;;;;4955207;28;45397;-67
2023/06/14 10:02:32;;;;;;;;;8.25;7.00;;;;;;;;4956277;28;45403;-67
2023/06/14 10:05:03;;;;;;;;;9.00;9.00;;;;;;;;4955705;28;45457;-67
2023/06/14 10:07:31;;;;;;;;;8.00;8.00;;;;;;;;4956055;28;45596;-67
2023/06/14 10:09:57;;;;;;;;;7.75;7.75;;;;;;;;4954343;28;45404;-67
2023/06/14 10:12:22;;;;;;;;;9.00;9.00;;;;;;;;4947470;28;45467;-67
2023/06/14 10:14:53;;;;;;;;;8.75;8.75;;;;;;;;4953083;28;45621;-65
2023/06/14 10:17:33;;;;;;;;;7.25;7.00;;;;;;;;4947504;28;46346;-66
2023/06/14 10:20:18;;;;;;;;;12.00;9.00;;;;;;;;4946661;28;45450;-66
2023/06/14 10:22:58;;;;;;;;;9.25;9.25;;;;;;;;4941993;28;45657;-66
2023/06/14 10:25:30;;;;;;;;;8.25;8.25;;;;;;;;4944609;28;45626;-66
2023/06/14 10:28:13;;;;;;;;;8.00;8.00;;;;;;;;4941494;28;46514;-66
2023/06/14 10:30:38;;;;;;;;;9.50;8.50;;;;;;;;4941922;28;45443;-66
2023/06/14 10:33:06;;;;;;;;;7.25;7.00;;;;;;;;4943135;28;45412;-65
2023/06/14 10:35:31;;;;;;;;;8.75;8.75;;;;;;;;4953115;28;45457;-66
2023/06/14 10:38:05;;;;;;;;;9.25;9.25;;;;;;;;4955581;28;45394;-65
2023/06/14 10:40:31;;;;;;;;;1.00;1.00;;;;;;;;4955721;28;45451;-66
2023/06/14 10:42:56;;;;;;;;;10.75;9.50;;;;;;;;4955320;28;45434;-66
2023/06/14 10:45:21;;;;;;;;;8.00;8.00;;;;;;;;4955392;28;45512;-66
2023/06/14 10:47:48;;;;;;;;;8.00;7.00;;;;;;;;4955909;28;46041;-65
2023/06/14 10:50:16;;;;;;;;;9.00;9.00;;;;;;;;4953465;28;45481;-66
2023/06/14 10:52:41;;;;;;;;;8.25;8.25;;;;;;;;4953779;28;45509;-66
2023/06/14 10:55:10;;;;;;;;;8.25;8.25;;;;;;;;4955355;28;45330;-66
2023/06/14 10:57:36;;;;;;;;;9.00;9.00;;;;;;;;4955670;28;45478;-66
2023/06/14 11:00:45;;;;;;;;;7.00;6.75;;;;;;;;4954170;28;45469;-66
2023/06/14 11:03:07;;;;;;;;;8.00;8.00;;;;;;;;4952044;28;45356;-66
2023/06/14 11:05:41;;;;;;;;;8.75;8.75;;;;;;;;4959063;28;45609;-65
2023/06/14 11:08:25;;;;;;;;;6.00;6.00;;;;;;;;4954526;28;47766;-66
2023/06/14 11:10:51;;;;;;;;;9.00;8.00;;;;;;;;4956172;28;45521;-67
2023/06/14 11:13:16;;;;;;;;;9.25;7.75;;;;;;;;4948075;28;45444;-66
2023/06/14 11:15:46;;;;;;;;;8.00;8.00;;;;;;;;4944181;28;45513;-65
2023/06/14 11:18:11;;;;;;;;;7.75;7.00;;;;;;;;4950550;28;46173;-67
2023/06/14 11:20:37;;;;;;;;;7.50;7.50;;;;;;;;4952829;28;45583;-66
2023/06/14 11:23:02;;;;;;;;;5.75;5.75;;;;;;;;4940477;28;45352;-66
2023/06/14 11:25:28;;;;;;;;;8.75;7.75;;;;;;;;4946472;28;45427;-66
2023/06/14 11:27:53;;;;;;;;;9.00;8.00;;;;;;;;4946020;28;45486;-66
2023/06/14 11:30:18;;;;;;;;;9.25;9.25;;;;;;;;4942155;28;45359;-66
2023/06/14 11:32:47;;;;;;;;;9.50;9.50;;;;;;;;4956867;28;45443;-66
2023/06/14 11:35:12;;;;;;;;;7.00;7.00;;;;;;;;4951538;28;45504;-65
2023/06/14 11:37:38;;;;;;;;;9.00;8.50;;;;;;;;4948206;28;46232;-66
2023/06/14 11:40:08;;;;;;;;;9.50;9.50;;;;;;;;4957624;28;45408;-66
2023/06/14 11:42:33;;;;;;;;;8.00;7.25;;;;;;;;4942016;28;45434;-66
2023/06/14 11:44:58;;;;;;;;;9.00;9.00;;;;;;;;4953215;28;45314;-66
2023/06/14 11:47:23;;;;;;;;;9.75;9.75;;;;;;;;4946154;28;46611;-66
2023/06/14 11:49:49;;;;;;;;;9.00;9.00;;;;;;;;4967737;28;45435;-65
2023/06/14 11:52:14;;;;;;;;;9.25;8.00;;;;;;;;4960648;28;45334;-67
2023/06/14 11:54:42;;;;;;;;;10.50;9.00;;;;;;;;4940699;28;45391;-65
2023/06/14 11:57:08;;;;;;;;;8.00;7.75;;;;;;;;4950968;28;46629;-65
2023/06/14 11:59:44;;;;;;;;;10.50;10.50;;;;;;;;4947406;28;45426;-65
2023/06/14 12:02:10;;;;;;;;;8.25;8.25;;;;;;;;4958165;28;45454;-65
2023/06/14 12:04:35;;;;;;;;;8.25;6.25;;;;;;;;4939667;28;45498;-65
2023/06/14 12:07:17;;;;;;;;;10.00;10.00;;;;;;;;4953147;28;46380;-66
2023/06/14 12:10:02;;;;;;;;;9.50;9.50;;;;;;;;4948711;28;45449;-66
2023/06/14 12:12:29;;;;;;;;;9.25;9.25;;;;;;;;4941318;28;45333;-66
2023/06/14 12:14:55;;;;;;;;;11.50;11.50;;;;;;;;4953440;28;45606;-65
2023/06/14 12:17:21;;;;;;;;;7.75;7.75;;;;;;;;4945139;28;47522;-65
2023/06/14 12:19:46;;;;;;;;;9.00;9.00;;;;;;;;4946282;28;45288;-65
2023/06/14 12:22:15;;;;;;;;;12.25;10.25;;;;;;;;4952206;28;45480;-65
2023/06/14 12:24:43;;;;;;;;;11.00;10.50;;;;;;;;4940720;28;45391;-65
2023/06/14 12:27:11;;;;;;;;;8.25;8.25;;;;;;;;4949409;28;46115;-65
2023/06/14 12:29:37;;;;;;;;;12.00;11.50;;;;;;;;4951079;28;45490;-65
2023/06/14 12:32:02;;;;;;;;;10.00;10.00;;;;;;;;4946445;28;45370;-66
2023/06/14 12:34:27;;;;;;;;;9.50;8.25;;;;;;;;4944688;28;45417;-65
2023/06/14 12:36:56;;;;;;;;;9.50;9.50;;;;;;;;4936886;28;45494;-62
2023/06/14 12:39:21;;;;;;;;;12.25;10.00;;;;;;;;4946292;28;45497;-61
2023/06/14 12:41:47;;;;;;;;;11.25;10.25;;;;;;;;4943298;28;45548;-61
2023/06/14 12:44:12;;;;;;;;;10.75;10.75;;;;;;;;4944737;28;45761;-62
2023/06/14 12:46:39;;;;;;;;;11.00;11.00;;;;;;;;4943091;28;46572;-62
2023/06/14 12:49:05;;;;;;;;;9.25;9.25;;;;;;;;4945632;28;45496;-62
2023/06/14 12:51:30;;;;;;;;;8.25;8.25;;;;;;;;4945967;28;45464;-62
2023/06/14 12:53:56;;;;;;;;;9.25;9.25;;;;;;;;4940397;28;45645;-62
2023/06/14 12:56:21;;;;;;;;;11.50;11.50;;;;;;;;4942178;28;46231;-62
2023/06/14 12:58:46;;;;;;;;;10.75;9.00;;;;;;;;4945796;28;45512;-62
2023/06/14 13:01:11;;;;;;;;;9.25;7.25;;;;;;;;4945254;28;45477;-62
2023/06/14 13:03:36;;;;;;;;;10.00;10.00;;;;;;;;4945367;28;45537;-61
2023/06/14 13:06:03;;;;;;;;;8.25;8.25;;;;;;;;4944934;28;46736;-61
2023/06/14 13:08:28;;;;;;;;;13.50;13.00;;;;;;;;4945563;28;45889;-61
2023/06/14 13:10:54;;;;;;;;;11.25;10.75;;;;;;;;4947820;28;45565;-61
2023/06/14 13:13:19;;;;;;;;;9.50;9.50;;;;;;;;4944716;28;45578;-60
2023/06/14 13:15:46;;;;;;;;;12.75;10.75;;;;;;;;4929266;28;46988;-62
2023/06/14 13:18:13;;;;;;;;;9.25;8.25;;;;;;;;4945266;28;45496;-62
2023/06/14 13:20:38;;;;;;;;;11.00;11.00;;;;;;;;4945773;28;46097;-62
2023/06/14 13:23:05;;;;;;;;;10.00;10.00;;;;;;;;4944962;28;45552;-61
2023/06/14 13:25:31;;;;;;;;;11.75;10.25;;;;;;;;4944594;28;45676;-61
2023/06/14 13:27:56;;;;;;;;;10.50;10.50;;;;;;;;4944367;28;45568;-62
2023/06/14 13:30:21;;;;;;;;;9.75;9.75;;;;;;;;4946843;28;45771;-62
2023/06/14 13:32:47;;;;;;;;;9.25;9.25;;;;;;;;4946292;28;45615;-63
2023/06/14 13:35:12;;;;;;;;;7.25;7.25;;;;;;;;4947922;28;45530;-63
2023/06/14 13:37:37;;;;;;;;;9.00;8.00;;;;;;;;4945047;28;45385;-63
2023/06/14 13:40:03;;;;;;;;;7.75;7.75;;;;;;;;4941961;28;45502;-61
2023/06/14 13:42:31;;;;;;;;;8.50;8.50;;;;;;;;4942034;28;45540;-63
2023/06/14 13:44:56;;;;;;;;;11.00;10.00;;;;;;;;4949520;28;46138;-62
2023/06/14 13:47:21;;;;;;;;;10.50;10.50;;;;;;;;4944434;28;45442;-63
2023/06/14 13:49:46;;;;;;;;;11.25;10.00;;;;;;;;4943229;28;45487;-62
2023/06/14 13:52:13;;;;;;;;;7.75;7.75;;;;;;;;4943506;28;45359;-61
2023/06/14 13:54:38;;;;;;;;;10.00;8.00;;;;;;;;4945197;28;46757;-61
2023/06/14 13:57:04;;;;;;;;;9.50;8.25;;;;;;;;4944699;28;45410;-60
2023/06/14 13:59:29;;;;;;;;;9.00;9.00;;;;;;;;4942767;28;45461;-61
2023/06/14 14:01:54;;;;;;;;;9.00;9.00;;;;;;;;4946111;28;45485;-61
2023/06/14 14:04:19;;;;;;;;;8.00;8.00;;;;;;;;4941517;28;46916;-61
2023/06/14 14:06:46;;;;;;;;;10.00;10.00;;;;;;;;4945682;28;45736;-62
2023/06/14 14:09:11;;;;;;;;;8.25;8.00;;;;;;;;4943277;28;45450;-61
2023/06/14 14:11:36;;;;;;;;;9.75;8.00;;;;;;;;4946301;28;45307;-61
2023/06/14 14:14:02;;;;;;;;;9.50;9.50;;;;;;;;4948632;28;46405;-61
2023/06/14 14:16:27;;;;;;;;;9.00;9.00;;;;;;;;4954417;28;45421;-61
2023/06/14 14:18:52;;;;;;;;;10.50;10.50;;;;;;;;4949091;28;45368;-61
2023/06/14 14:21:18;;;;;;;;;11.50;11.50;;;;;;;;4948216;28;45572;-62